createdAt,value
2023-02-03T00:00:49.963Z,6.00
2023-02-03T00:03:16.929Z,5.88
2023-02-03T00:05:44.242Z,5.95
2023-02-03T00:08:11.402Z,5.91
2023-02-03T00:10:39.905Z,5.90
2023-02-03T00:13:08.600Z,5.91
2023-02-03T00:15:35.493Z,5.52
2023-02-03T00:18:22.504Z,5.60
2023-02-03T00:21:23.520Z,5.81
2023-02-03T00:24:04.219Z,5.58
2023-02-03T00:26:31.146Z,5.80
2023-02-03T00:28:59.713Z,5.96
2023-02-03T00:31:26.709Z,5.63
2023-02-03T00:34:13.535Z,5.77
2023-02-03T00:36:59.156Z,5.75
2023-02-03T00:39:26.012Z,5.45
2023-02-03T00:41:52.911Z,5.34
2023-02-03T00:44:19.737Z,5.03
2023-02-03T00:46:46.588Z,5.06
2023-02-03T00:49:13.405Z,4.86
2023-02-03T00:52:00.565Z,5.08
2023-02-03T00:54:41.092Z,4.82
2023-02-03T00:57:28.530Z,4.85
2023-02-03T01:00:10.005Z,4.44
2023-02-03T01:02:38.296Z,4.57
2023-02-03T01:05:05.862Z,4.59
2023-02-03T01:07:33.463Z,4.25
2023-02-03T01:10:00.507Z,4.40
2023-02-03T01:12:30.127Z,4.47
2023-02-03T01:14:57.166Z,4.26
2023-02-03T01:17:24.604Z,4.20
2023-02-03T01:20:11.555Z,3.97
2023-02-03T01:23:12.531Z,3.97
2023-02-03T01:26:06.604Z,4.33
2023-02-03T01:28:34.413Z,3.91
2023-02-03T01:31:10.843Z,4.36
2023-02-03T01:33:48.631Z,3.99
2023-02-03T01:36:49.580Z,3.72
2023-02-03T01:39:22.429Z,3.76
2023-02-03T01:41:49.312Z,3.29
2023-02-03T01:44:45.778Z,3.39
2023-02-03T01:47:15.866Z,3.29
2023-02-03T01:50:19.662Z,3.35
2023-02-03T01:53:04.789Z,3.54
2023-02-03T01:55:55.556Z,3.46
2023-02-03T01:58:40.091Z,3.17
2023-02-03T02:01:07.391Z,3.36
2023-02-03T02:03:46.019Z,2.65
2023-02-03T02:06:14.532Z,3.41
2023-02-03T02:08:45.039Z,3.65
2023-02-03T02:11:12.101Z,3.70
2023-02-03T02:13:43.508Z,3.77
2023-02-03T02:16:16.357Z,3.81
2023-02-03T02:19:10.660Z,3.82
2023-02-03T02:22:03.697Z,3.65
2023-02-03T02:25:18.596Z,3.36
2023-02-03T02:28:32.579Z,3.08
2023-02-03T02:31:51.029Z,2.74
2023-02-03T02:34:34.754Z,2.74
2023-02-03T02:37:39.961Z,2.73
2023-02-03T02:40:12.933Z,2.66
2023-02-03T02:42:44.059Z,2.24
2023-02-03T02:45:17.538Z,2.04
2023-02-03T02:47:45.397Z,2.00
2023-02-03T02:50:27.161Z,2.22
2023-02-03T02:52:55.715Z,2.39
2023-02-03T02:55:45.771Z,2.54
2023-02-03T02:58:49.598Z,2.71
2023-02-03T03:01:30.335Z,2.47
2023-02-03T03:04:00.414Z,2.09
2023-02-03T03:06:40.619Z,1.62
2023-02-03T03:09:21.991Z,1.44
2023-02-03T03:11:55.015Z,2.06
2023-02-03T03:14:26.610Z,1.82
2023-02-03T03:17:02.676Z,1.79
2023-02-03T03:19:42.037Z,1.75
2023-02-03T03:22:11.722Z,1.80
2023-02-03T03:24:44.004Z,1.92
2023-02-03T03:27:36.706Z,1.58
2023-02-03T03:30:42.658Z,1.83
2023-02-03T03:33:23.847Z,2.21
2023-02-03T03:36:45.615Z,2.24
2023-02-03T03:39:28.173Z,2.01
2023-02-03T03:42:04.813Z,1.84
2023-02-03T03:44:39.605Z,1.27
2023-02-03T03:47:14.783Z,1.15
2023-02-03T03:49:45.945Z,1.45
2023-02-03T03:52:18.727Z,1.47
2023-02-03T03:54:48.024Z,1.48
2023-02-03T03:57:40.752Z,1.53
2023-02-03T04:00:38.031Z,1.59
2023-02-03T04:03:45.031Z,1.51
2023-02-03T04:06:26.283Z,1.47
2023-02-03T04:08:54.114Z,1.19
2023-02-03T04:11:40.568Z,0.34
2023-02-03T04:14:08.366Z,0.93
2023-02-03T04:16:35.438Z,1.24
2023-02-03T04:19:02.321Z,1.07
2023-02-03T04:21:30.225Z,0.63
2023-02-03T04:23:57.124Z,1.56
2023-02-03T04:26:24.120Z,1.75
2023-02-03T04:28:51.010Z,1.30
2023-02-03T04:31:17.978Z,1.35
2023-02-03T04:34:04.670Z,1.03
2023-02-03T04:37:05.809Z,1.53
2023-02-03T04:40:07.661Z,1.54
2023-02-03T04:42:41.382Z,1.17
2023-02-03T04:45:10.366Z,1.11
2023-02-03T04:47:37.941Z,1.23
2023-02-03T04:50:05.468Z,1.20
2023-02-03T04:52:32.330Z,0.49
2023-02-03T04:54:59.148Z,0.84
2023-02-03T04:57:46.751Z,1.02
2023-02-03T05:00:47.673Z,1.05
2023-02-03T05:03:28.268Z,0.87
2023-02-03T05:05:57.043Z,0.91
2023-02-03T05:08:24.461Z,0.80
2023-02-03T05:10:51.343Z,0.53
2023-02-03T05:13:18.202Z,0.37
2023-02-03T05:15:45.153Z,0.95
2023-02-03T05:18:11.971Z,0.34
2023-02-03T05:20:39.029Z,1.14
2023-02-03T05:23:05.851Z,1.07
2023-02-03T05:25:32.770Z,1.18
2023-02-03T05:27:59.906Z,1.13
2023-02-03T05:30:27.028Z,1.04
2023-02-03T05:32:54.020Z,0.54
2023-02-03T05:35:40.690Z,0.96
2023-02-03T05:38:21.879Z,1.07
2023-02-03T05:41:07.988Z,0.94
2023-02-03T05:43:35.623Z,1.29
2023-02-03T05:46:07.051Z,1.31
2023-02-03T05:48:34.865Z,1.12
2023-02-03T05:51:02.323Z,1.28
2023-02-03T05:53:29.267Z,0.43
2023-02-03T05:56:16.688Z,0.95
2023-02-03T05:59:18.731Z,0.87
2023-02-03T06:02:19.684Z,0.82
2023-02-03T06:05:15.115Z,1.02
2023-02-03T06:07:41.939Z,0.62
2023-02-03T06:10:09.236Z,1.12
2023-02-03T06:12:38.078Z,1.35
2023-02-03T06:15:24.679Z,1.36
2023-02-03T06:18:25.713Z,1.69
2023-02-03T06:21:06.585Z,1.82
2023-02-03T06:23:33.465Z,1.92
2023-02-03T06:26:00.554Z,1.55
2023-02-03T06:28:27.529Z,1.66
2023-02-03T06:30:54.487Z,1.63
2023-02-03T06:33:21.703Z,1.40
2023-02-03T06:36:08.720Z,1.37
2023-02-03T06:39:09.713Z,1.80
2023-02-03T06:41:51.849Z,1.90
2023-02-03T06:44:19.055Z,1.90
2023-02-03T06:47:05.713Z,1.30
2023-02-03T06:50:07.506Z,1.47
2023-02-03T06:52:59.513Z,1.42
2023-02-03T06:55:46.854Z,1.43
2023-02-03T06:58:27.448Z,1.62
2023-02-03T07:00:57.998Z,1.40
2023-02-03T07:03:25.235Z,1.36
2023-02-03T07:05:52.136Z,1.79
2023-02-03T07:08:19.180Z,1.99
2023-02-03T07:11:09.723Z,1.76
2023-02-03T07:14:10.867Z,1.90
2023-02-03T07:16:51.215Z,1.62
2023-02-03T07:19:18.044Z,2.10
2023-02-03T07:21:44.947Z,1.95
2023-02-03T07:24:12.003Z,1.92
2023-02-03T07:26:39.420Z,1.69
2023-02-03T07:29:06.684Z,1.79
2023-02-03T07:31:34.105Z,1.94
2023-02-03T07:34:21.737Z,2.18
2023-02-03T07:37:02.324Z,2.57
2023-02-03T07:39:29.412Z,2.43
2023-02-03T07:41:56.440Z,2.27
2023-02-03T07:44:24.161Z,2.63
2023-02-03T07:46:51.405Z,2.65
2023-02-03T07:49:18.322Z,2.47
2023-02-03T07:51:45.327Z,2.87
2023-02-03T07:54:32.809Z,2.89
2023-02-03T07:57:33.772Z,2.77
2023-02-03T08:00:34.038Z,1.96
2023-02-03T08:03:01.040Z,2.71
2023-02-03T08:05:28.269Z,3.01
2023-02-03T08:07:55.128Z,2.88
2023-02-03T08:10:41.774Z,3.12
2023-02-03T08:13:42.823Z,3.43
2023-02-03T08:16:43.779Z,3.20
2023-02-03T08:19:12.732Z,3.06
2023-02-03T08:21:39.615Z,3.39
2023-02-03T08:24:06.871Z,3.32
2023-02-03T08:26:54.761Z,3.62
2023-02-03T08:29:35.488Z,3.95
2023-02-03T08:32:03.231Z,4.48
2023-02-03T08:34:51.783Z,4.58
2023-02-03T08:37:52.775Z,4.97
2023-02-03T08:40:33.353Z,4.51
2023-02-03T08:43:20.802Z,5.93
2023-02-03T08:46:06.496Z,6.39
2023-02-03T08:48:34.226Z,6.74
2023-02-03T08:51:30.823Z,6.97
2023-02-03T08:54:12.477Z,7.10
2023-02-03T08:56:59.799Z,7.19
2023-02-03T08:59:42.230Z,7.02
2023-02-03T09:02:14.270Z,6.90
2023-02-03T09:04:41.181Z,6.62
2023-02-03T09:07:09.038Z,5.33
2023-02-03T09:09:35.911Z,6.27
2023-02-03T09:12:05.477Z,6.18
2023-02-03T09:14:33.837Z,6.17
2023-02-03T09:17:03.824Z,6.75
2023-02-03T09:19:33.290Z,6.89
2023-02-03T09:22:01.367Z,6.93
2023-02-03T09:24:28.520Z,6.87
2023-02-03T09:26:56.168Z,7.37
2023-02-03T09:29:23.313Z,7.46
2023-02-03T09:32:15.496Z,7.66
2023-02-03T09:35:16.807Z,7.85
2023-02-03T09:38:17.789Z,7.62
2023-02-03T09:41:24.960Z,7.93
2023-02-03T09:44:18.936Z,8.01
2023-02-03T09:46:55.748Z,8.03
2023-02-03T09:49:27.136Z,8.28
2023-02-03T09:52:08.728Z,7.98
2023-02-03T09:54:54.597Z,8.16
2023-02-03T09:57:44.863Z,8.15
2023-02-03T10:00:35.308Z,8.74
2023-02-03T10:03:18.173Z,8.25
2023-02-03T10:06:00.177Z,7.68
2023-02-03T10:08:29.964Z,8.34
2023-02-03T10:11:30.813Z,8.28
2023-02-03T10:14:03.749Z,7.87
2023-02-03T10:17:07.913Z,7.65
2023-02-03T10:19:54.882Z,8.34
2023-02-03T10:22:28.198Z,8.53
2023-02-03T10:25:00.653Z,7.82
2023-02-03T10:27:29.203Z,8.29
2023-02-03T10:29:59.325Z,9.10
2023-02-03T10:32:27.727Z,9.14
2023-02-03T10:35:15.274Z,7.87
2023-02-03T10:38:19.844Z,9.22
2023-02-03T10:41:01.088Z,9.22
2023-02-03T10:43:50.005Z,9.93
2023-02-03T10:46:33.565Z,9.39
2023-02-03T10:49:01.778Z,9.79
2023-02-03T10:51:35.171Z,10.16
2023-02-03T10:54:02.090Z,9.22
2023-02-03T10:56:51.886Z,9.88
2023-02-03T10:59:36.469Z,10.28
2023-02-03T11:02:38.921Z,10.05
2023-02-03T11:05:25.110Z,9.89
2023-02-03T11:07:53.294Z,10.08
2023-02-03T11:10:26.769Z,10.16
2023-02-03T11:13:32.524Z,9.99
2023-02-03T11:16:05.962Z,9.88
2023-02-03T11:18:40.420Z,10.15
2023-02-03T11:21:17.804Z,10.62
2023-02-03T11:24:26.112Z,10.51
2023-02-03T11:27:04.788Z,10.72
2023-02-03T11:29:57.904Z,10.61
2023-02-03T11:33:01.854Z,10.96
2023-02-03T11:36:16.864Z,10.65
2023-02-03T11:39:35.745Z,10.71
2023-02-03T11:42:03.587Z,10.91
2023-02-03T11:44:33.703Z,10.98
2023-02-03T11:47:04.845Z,11.23
2023-02-03T11:49:52.470Z,11.31
2023-02-03T11:53:04.174Z,11.09
2023-02-03T11:56:41.909Z,11.24
2023-02-03T11:59:45.683Z,11.02
2023-02-03T12:02:37.647Z,10.95
2023-02-03T12:05:13.324Z,10.95
2023-02-03T12:07:48.927Z,11.08
2023-02-03T12:10:24.835Z,11.10
2023-02-03T12:13:48.045Z,10.81
2023-02-03T12:17:00.846Z,10.64
2023-02-03T12:19:38.899Z,11.03
2023-02-03T12:22:23.673Z,10.80
2023-02-03T12:25:21.488Z,10.92
2023-02-03T12:28:33.386Z,10.78
2023-02-03T12:31:24.886Z,10.74
2023-02-03T12:34:37.904Z,10.57
2023-02-03T12:37:37.439Z,10.74
2023-02-03T12:40:18.943Z,10.63
2023-02-03T12:43:12.915Z,10.59
2023-02-03T12:46:21.006Z,10.26
2023-02-03T12:49:40.895Z,10.30
2023-02-03T12:52:22.668Z,10.25
2023-02-03T12:55:28.938Z,10.54
2023-02-03T12:58:32.057Z,10.36
2023-02-03T13:01:08.574Z,10.24
2023-02-03T13:03:42.886Z,10.48
2023-02-03T13:06:18.778Z,10.49
2023-02-03T13:09:14.721Z,10.60
2023-02-03T13:12:06.857Z,9.70
2023-02-03T13:14:50.028Z,10.68
2023-02-03T13:18:10.970Z,10.71
2023-02-03T13:20:52.032Z,10.57
2023-02-03T13:23:19.005Z,10.79
2023-02-03T13:26:19.958Z,10.50
2023-02-03T13:29:37.006Z,10.73
2023-02-03T13:33:23.962Z,10.55
2023-02-03T13:36:42.944Z,10.26
2023-02-03T13:40:14.069Z,10.27
2023-02-03T13:43:00.239Z,10.01
2023-02-03T13:45:29.261Z,10.08
2023-02-03T13:48:35.965Z,10.22
2023-02-03T13:51:43.944Z,10.38
2023-02-03T13:54:44.952Z,10.38
2023-02-03T13:57:48.945Z,10.48
2023-02-03T14:00:44.674Z,10.58
2023-02-03T14:03:26.800Z,10.71
2023-02-03T14:05:59.485Z,10.83
2023-02-03T14:08:26.440Z,10.85
2023-02-03T14:11:50.991Z,10.92
2023-02-03T14:14:34.861Z,10.84
2023-02-03T14:18:04.984Z,10.37
2023-02-03T14:20:49.031Z,10.33
2023-02-03T14:23:42.974Z,10.46
2023-02-03T14:26:42.461Z,10.51
2023-02-03T14:29:30.245Z,10.96
2023-02-03T14:31:58.950Z,10.98
2023-02-03T14:34:53.985Z,11.05
2023-02-03T14:37:35.906Z,10.84
2023-02-03T14:40:44.101Z,10.86
2023-02-03T14:43:29.374Z,11.04
2023-02-03T14:46:48.002Z,10.90
2023-02-03T14:50:16.085Z,10.82
2023-02-03T14:53:23.929Z,10.98
2023-02-03T14:56:10.977Z,11.06
2023-02-03T14:58:58.760Z,10.84
2023-02-03T15:01:37.895Z,11.02
2023-02-03T15:04:35.041Z,11.18
2023-02-03T15:07:59.223Z,11.25
2023-02-03T15:10:58.986Z,10.89
2023-02-03T15:13:39.569Z,10.98
2023-02-03T15:16:31.987Z,11.18
2023-02-03T15:19:37.012Z,10.98
2023-02-03T15:22:23.623Z,11.01
2023-02-03T15:25:18.156Z,11.02
2023-02-03T15:27:45.034Z,10.69
2023-02-03T15:30:30.915Z,10.33
2023-02-03T15:33:45.008Z,10.41
2023-02-03T15:36:57.016Z,10.57
2023-02-03T15:40:14.015Z,10.69
2023-02-03T15:43:02.508Z,10.53
2023-02-03T15:45:55.538Z,10.20
2023-02-03T15:48:36.750Z,10.14
2023-02-03T15:51:20.082Z,10.15
2023-02-03T15:54:37.329Z,9.67
2023-02-03T15:57:44.573Z,9.53
2023-02-03T16:00:38.465Z,9.84
2023-02-03T16:03:16.491Z,9.52
2023-02-03T16:06:07.329Z,9.35
2023-02-03T16:08:49.023Z,9.27
2023-02-03T16:11:27.123Z,9.32
2023-02-03T16:14:00.202Z,9.26
2023-02-03T16:17:04.402Z,9.24
2023-02-03T16:19:51.344Z,9.01
2023-02-03T16:22:36.145Z,8.88
2023-02-03T16:25:44.074Z,9.02
2023-02-03T16:28:43.589Z,8.15
2023-02-03T16:31:34.229Z,9.10
2023-02-03T16:34:57.023Z,8.74
2023-02-03T16:38:03.021Z,8.69
2023-02-03T16:41:10.355Z,8.23
2023-02-03T16:44:09.171Z,7.52
2023-02-03T16:46:56.047Z,8.26
2023-02-03T16:49:41.432Z,7.68
2023-02-03T16:52:08.892Z,8.14
2023-02-03T16:54:56.059Z,8.01
2023-02-03T16:57:58.053Z,7.94
2023-02-03T17:00:41.912Z,7.90
2023-02-03T17:03:31.084Z,7.94
2023-02-03T17:06:12.919Z,7.46
2023-02-03T17:08:41.131Z,7.66
2023-02-03T17:11:18.643Z,7.74
2023-02-03T17:13:46.617Z,7.63
2023-02-03T17:16:17.533Z,7.35
2023-02-03T17:18:46.423Z,7.52
2023-02-03T17:21:16.832Z,7.37
2023-02-03T17:23:43.958Z,7.20
2023-02-03T17:26:10.944Z,7.31
2023-02-03T17:28:43.212Z,7.32
2023-02-03T17:31:16.202Z,7.08
2023-02-03T17:34:06.077Z,7.27
2023-02-03T17:37:09.064Z,7.21
2023-02-03T17:54:06.610Z,6.77
2023-02-03T17:56:56.064Z,6.92
2023-02-03T18:00:01.065Z,6.57
2023-02-03T18:03:06.099Z,6.67
2023-02-03T18:06:09.089Z,6.77
2023-02-03T18:08:50.814Z,6.55
2023-02-03T18:11:19.160Z,6.48
2023-02-03T18:13:48.474Z,6.82
2023-02-03T18:16:39.118Z,6.12
2023-02-03T18:19:27.107Z,6.39
2023-02-03T18:21:54.010Z,6.13
2023-02-03T18:24:24.979Z,6.46
2023-02-03T18:26:52.104Z,6.13
2023-02-03T18:29:19.418Z,6.00
2023-02-03T18:31:47.496Z,5.97
2023-02-03T18:34:15.875Z,5.04
2023-02-03T18:36:42.911Z,5.32
2023-02-03T18:39:12.281Z,5.73
2023-02-03T18:42:00.091Z,5.65
2023-02-03T18:44:41.383Z,5.75
2023-02-03T18:47:28.140Z,5.21
2023-02-03T18:50:08.999Z,5.30
2023-02-03T18:52:36.453Z,4.84
2023-02-03T18:55:24.099Z,5.57
2023-02-03T18:58:26.109Z,5.41
2023-02-03T19:01:07.033Z,5.19
2023-02-03T19:03:34.584Z,5.11
2023-02-03T19:06:23.133Z,5.15
2023-02-03T19:09:26.500Z,4.99
2023-02-03T19:12:06.750Z,5.02
2023-02-03T19:14:35.226Z,5.05
2023-02-03T19:17:02.791Z,5.00
2023-02-03T19:19:50.148Z,5.32
2023-02-03T19:22:32.000Z,5.15
2023-02-03T19:24:58.962Z,5.15
2023-02-03T19:27:26.073Z,5.37
2023-02-03T19:29:53.855Z,5.29
2023-02-03T19:32:21.624Z,4.84
2023-02-03T19:34:50.872Z,4.49
2023-02-03T19:37:19.894Z,5.05
2023-02-03T19:39:52.522Z,4.67
2023-02-03T19:42:19.643Z,4.39
2023-02-03T19:44:46.797Z,4.48
2023-02-03T19:47:13.983Z,4.91
2023-02-03T19:49:41.064Z,3.89
2023-02-03T19:52:11.522Z,4.31
2023-02-03T19:55:00.140Z,4.60
2023-02-03T19:58:01.134Z,4.50
2023-02-03T20:00:48.934Z,4.34
2023-02-03T20:03:37.160Z,4.07
2023-02-03T20:06:41.299Z,4.45
2023-02-03T20:09:42.126Z,4.12
2023-02-03T20:12:43.151Z,4.39
2023-02-03T20:15:23.802Z,4.16
2023-02-03T20:17:50.768Z,4.88
2023-02-03T20:20:19.776Z,4.96
2023-02-03T20:22:48.040Z,4.88
2023-02-03T20:25:35.160Z,5.01
2023-02-03T20:28:17.714Z,5.28
2023-02-03T20:30:45.675Z,4.88
2023-02-03T20:33:13.292Z,5.79
2023-02-03T20:35:40.182Z,5.73
2023-02-03T20:38:27.196Z,5.60
2023-02-03T20:41:12.288Z,5.89
2023-02-03T20:43:59.188Z,5.59
2023-02-03T20:46:57.905Z,5.60
2023-02-03T20:49:24.991Z,5.52
2023-02-03T20:52:12.176Z,6.01
2023-02-03T20:55:14.361Z,5.82
2023-02-03T20:58:15.227Z,6.04
2023-02-03T21:01:16.278Z,5.66
2023-02-03T21:04:35.201Z,6.01
2023-02-03T21:07:18.829Z,5.62
2023-02-03T21:10:07.193Z,5.67
2023-02-03T21:12:49.751Z,5.52
2023-02-03T21:15:23.305Z,5.41
2023-02-03T21:17:50.767Z,5.19
2023-02-03T21:20:28.562Z,5.21
2023-02-03T21:23:21.282Z,4.87
2023-02-03T21:26:40.233Z,4.72
2023-02-03T21:29:35.728Z,4.75
2023-02-03T21:32:11.420Z,4.95
2023-02-03T21:34:42.727Z,4.73
2023-02-03T21:37:38.221Z,4.52
2023-02-03T21:40:34.965Z,4.12
2023-02-03T21:43:03.384Z,4.31
2023-02-03T21:45:36.342Z,4.06
2023-02-03T21:48:22.903Z,4.18
2023-02-03T21:50:49.946Z,4.11
2023-02-03T21:53:27.820Z,4.13
2023-02-03T21:56:36.232Z,4.10
2023-02-03T21:59:40.198Z,3.95
2023-02-03T22:02:44.066Z,4.08
2023-02-03T22:05:15.841Z,4.05
2023-02-03T22:07:42.920Z,3.25
2023-02-03T22:10:10.000Z,4.08
2023-02-03T22:12:36.853Z,3.14
2023-02-03T22:15:03.987Z,3.68
2023-02-03T22:17:31.033Z,3.90
2023-02-03T22:19:57.854Z,3.78
2023-02-03T22:22:45.220Z,3.49
2023-02-03T22:25:46.248Z,3.72
2023-02-03T22:28:47.228Z,3.11
2023-02-03T22:31:20.256Z,3.60
2023-02-03T22:34:07.233Z,3.96
2023-02-03T22:36:47.930Z,3.73
2023-02-03T22:39:35.224Z,3.92
2023-02-03T22:42:17.586Z,3.70
2023-02-03T22:44:44.501Z,3.74
2023-02-03T22:47:11.446Z,3.65
2023-02-03T22:49:38.554Z,4.09
2023-02-03T22:52:25.233Z,3.84
2023-02-03T22:55:07.625Z,4.67
2023-02-03T22:57:54.304Z,4.44
2023-02-03T23:00:35.463Z,5.63
2023-02-03T23:03:22.335Z,5.51
2023-02-03T23:06:07.737Z,4.99
2023-02-03T23:08:54.251Z,4.82
2023-02-03T23:11:34.754Z,4.05
2023-02-03T23:14:01.788Z,3.83
2023-02-03T23:16:28.732Z,3.30
2023-02-03T23:18:55.648Z,3.14
2023-02-03T23:21:22.468Z,3.52
2023-02-03T23:23:50.653Z,3.40
2023-02-03T23:26:17.509Z,3.29
2023-02-03T23:28:44.466Z,3.67
2023-02-03T23:31:11.519Z,3.62
2023-02-03T23:34:17.282Z,3.43
2023-02-03T23:37:18.328Z,4.19
2023-02-03T23:39:58.893Z,4.88
2023-02-03T23:42:25.969Z,5.38
2023-02-03T23:45:14.286Z,5.28
2023-02-03T23:47:54.932Z,5.80
2023-02-03T23:50:22.099Z,6.22
2023-02-03T23:52:49.068Z,5.85
2023-02-03T23:55:37.399Z,5.85
2023-02-03T23:58:38.334Z,5.97
